Time;durP1;ratioP1;P1;durP2;ratioP2;P2;SDS_P1;SDS_P2;PMS_P1;PMS_P2;Temp;Humidity;BMP_temperature;BMP_pressure;BME280_temperature;BME280_humidity;BME280_pressure;Samples;Min_cycle;Max_cycle;Signal;HPM_P1;HPM_P2
2022/03/19 00:01:44;;;;;;;16.20;9.45;;;;;;;;;;5056108;28;20045;-67
2022/03/19 00:04:15;;;;;;;16.23;9.48;;;;;;;;;;5056150;28;20071;-68
2022/03/19 00:06:48;;;;;;;14.20;8.68;;;;;;;;;;5055810;28;20036;-68
2022/03/19 00:09:18;;;;;;;14.85;8.48;;;;;;;;;;5056288;28;20117;-68
2022/03/19 00:11:54;;;;;;;16.92;10.15;;;;;;;;;;5055825;28;20431;-68
2022/03/19 00:14:24;;;;;;;14.15;8.10;;;;;;;;;;5055662;28;20064;-68
2022/03/19 00:17:00;;;;;;;21.20;9.90;;;;;;;;;;5055936;28;20464;-68
2022/03/19 00:25:40;;;;;;;15.50;9.13;;;;;;;;;;5055711;28;20060;-68
2022/03/19 00:28:33;;;;;;;15.43;9.07;;;;;;;;;;5054604;28;20079;-68
2022/03/19 00:31:26;;;;;;;15.65;9.23;;;;;;;;;;5055553;28;20116;-68
2022/03/19 00:33:56;;;;;;;16.70;9.93;;;;;;;;;;5055154;28;20091;-68
2022/03/19 00:36:23;;;;;;;20.63;9.45;;;;;;;;;;5055222;28;20056;-68
2022/03/19 00:38:53;;;;;;;14.55;9.23;;;;;;;;;;5054842;28;20071;-68
2022/03/19 00:41:25;;;;;;;17.02;9.27;;;;;;;;;;5054848;28;20064;-68
2022/03/19 00:43:53;;;;;;;14.55;9.20;;;;;;;;;;5055425;28;20053;-68
2022/03/19 00:46:22;;;;;;;15.80;9.32;;;;;;;;;;5054869;28;20045;-68
2022/03/19 00:48:54;;;;;;;14.45;8.60;;;;;;;;;;5055202;28;20040;-68
2022/03/19 00:51:22;;;;;;;13.05;8.60;;;;;;;;;;5055073;28;20121;-68
2022/03/19 00:53:52;;;;;;;19.40;9.20;;;;;;;;;;5055267;28;20401;-68
2022/03/19 00:56:24;;;;;;;14.02;8.43;;;;;;;;;;5054717;28;20499;-68
2022/03/19 00:58:52;;;;;;;14.73;9.05;;;;;;;;;;5054916;28;20048;-68
2022/03/19 01:01:20;;;;;;;15.60;8.73;;;;;;;;;;5054897;28;20033;-68
2022/03/19 01:03:48;;;;;;;14.13;8.93;;;;;;;;;;5054627;28;20488;-68
2022/03/19 01:06:19;;;;;;;12.88;8.45;;;;;;;;;;5054809;28;20037;-68
2022/03/19 01:08:48;;;;;;;13.63;8.82;;;;;;;;;;5054875;28;20098;-68
2022/03/19 01:11:23;;;;;;;18.25;8.70;;;;;;;;;;5054430;28;20052;-67
2022/03/19 01:13:55;;;;;;;16.85;8.55;;;;;;;;;;5054482;28;20431;-68
2022/03/19 01:16:27;;;;;;;14.07;8.02;;;;;;;;;;5054867;28;20094;-68
2022/03/19 01:18:57;;;;;;;14.95;8.13;;;;;;;;;;5054514;28;20068;-68
2022/03/19 01:21:28;;;;;;;13.48;8.18;;;;;;;;;;5054499;28;20091;-68
2022/03/19 01:24:01;;;;;;;11.75;7.78;;;;;;;;;;5054622;28;20037;-68
2022/03/19 01:26:35;;;;;;;14.80;8.15;;;;;;;;;;5054029;28;20095;-68
2022/03/19 01:29:03;;;;;;;12.45;8.15;;;;;;;;;;5054662;28;20407;-68
2022/03/19 01:31:36;;;;;;;13.82;7.68;;;;;;;;;;5054544;28;20368;-68
2022/03/19 01:34:12;;;;;;;13.60;8.10;;;;;;;;;;5054512;28;20064;-69
2022/03/19 01:36:39;;;;;;;14.55;8.07;;;;;;;;;;5053970;28;20087;-68
2022/03/19 01:39:09;;;;;;;12.57;8.00;;;;;;;;;;5053763;28;20391;-68
2022/03/19 01:41:44;;;;;;;17.33;8.40;;;;;;;;;;5054075;28;20037;-68
2022/03/19 01:44:20;;;;;;;13.82;8.05;;;;;;;;;;5054391;28;20456;-68
2022/03/19 01:46:59;;;;;;;13.57;7.80;;;;;;;;;;5053895;28;20490;-68
2022/03/19 01:49:30;;;;;;;13.80;8.25;;;;;;;;;;5053858;28;20072;-68
2022/03/19 01:52:01;;;;;;;14.32;8.20;;;;;;;;;;5053950;28;20449;-68
2022/03/19 01:54:36;;;;;;;16.35;8.20;;;;;;;;;;5053273;28;20116;-68
2022/03/19 01:57:08;;;;;;;15.45;8.02;;;;;;;;;;5053477;28;20094;-68
2022/03/19 01:59:37;;;;;;;15.10;8.65;;;;;;;;;;5036153;28;20086;-68
2022/03/19 02:02:10;;;;;;;14.57;8.07;;;;;;;;;;5035762;28;20050;-68
2022/03/19 02:04:53;;;;;;;18.13;8.48;;;;;;;;;;5054455;28;20442;-68
2022/03/19 02:07:21;;;;;;;13.95;7.70;;;;;;;;;;5053460;28;20426;-68
2022/03/19 02:09:50;;;;;;;14.23;7.60;;;;;;;;;;5053456;28;20549;-68
2022/03/19 02:12:23;;;;;;;15.50;7.68;;;;;;;;;;5053875;28;20047;-68
2022/03/19 02:14:57;;;;;;;13.95;7.90;;;;;;;;;;5053138;28;20087;-68
2022/03/19 02:17:26;;;;;;;14.10;8.10;;;;;;;;;;5053097;28;20064;-68
2022/03/19 02:19:57;;;;;;;13.68;7.90;;;;;;;;;;5053478;28;20052;-68
2022/03/19 02:22:29;;;;;;;12.63;7.65;;;;;;;;;;5053387;28;20049;-68
2022/03/19 02:27:48;;;;;;;12.90;7.82;;;;;;;;;;5053292;28;20053;-68
2022/03/19 02:30:16;;;;;;;13.43;7.55;;;;;;;;;;5053237;28;20044;-68
2022/03/19 02:32:49;;;;;;;12.95;8.25;;;;;;;;;;5053264;28;20091;-68
2022/03/19 02:35:25;;;;;;;14.70;8.25;;;;;;;;;;5053839;28;20055;-68
2022/03/19 02:37:53;;;;;;;12.80;7.65;;;;;;;;;;5053594;28;20060;-68
2022/03/19 02:40:25;;;;;;;12.68;7.68;;;;;;;;;;5053584;28;20037;-68
2022/03/19 02:42:57;;;;;;;13.43;7.63;;;;;;;;;;5053101;28;20052;-68
2022/03/19 02:45:25;;;;;;;14.98;6.95;;;;;;;;;;5052931;28;20445;-68
2022/03/19 02:47:58;;;;;;;12.00;7.50;;;;;;;;;;5052982;28;20072;-68
2022/03/19 02:50:34;;;;;;;13.60;7.93;;;;;;;;;;5053124;28;20033;-68
2022/03/19 02:53:10;;;;;;;15.60;8.30;;;;;;;;;;5052982;28;20072;-68
2022/03/19 02:55:42;;;;;;;15.05;8.52;;;;;;;;;;5053049;28;20446;-67
2022/03/19 02:58:10;;;;;;;13.65;7.88;;;;;;;;;;5053121;28;20547;-68
2022/03/19 03:00:44;;;;;;;14.10;8.30;;;;;;;;;;5052799;28;20039;-68
2022/03/19 03:03:12;;;;;;;16.15;8.25;;;;;;;;;;5052916;28;20068;-68
2022/03/19 03:05:47;;;;;;;15.77;8.50;;;;;;;;;;5056167;28;20060;-68
2022/03/19 03:08:15;;;;;;;15.38;8.25;;;;;;;;;;5057189;28;20466;-68
2022/03/19 03:10:48;;;;;;;16.55;8.85;;;;;;;;;;5039537;28;20398;-68
2022/03/19 03:13:21;;;;;;;14.02;8.20;;;;;;;;;;5056762;28;20037;-68
2022/03/19 03:15:49;;;;;;;15.23;8.75;;;;;;;;;;5057129;28;20424;-68
2022/03/19 03:18:42;;;;;;;15.63;8.60;;;;;;;;;;5057231;28;20056;-68
2022/03/19 03:21:15;;;;;;;13.85;8.20;;;;;;;;;;5056661;28;20063;-67
2022/03/19 03:23:49;;;;;;;15.70;8.35;;;;;;;;;;5056551;28;20040;-69
2022/03/19 03:26:18;;;;;;;13.93;8.43;;;;;;;;;;5056562;28;20056;-68
2022/03/19 03:28:46;;;;;;;16.27;8.45;;;;;;;;;;5056945;28;20120;-67
2022/03/19 03:31:19;;;;;;;14.02;8.23;;;;;;;;;;5056331;28;20492;-68
2022/03/19 03:33:51;;;;;;;20.05;8.82;;;;;;;;;;5057299;28;20045;-67
2022/03/19 03:36:19;;;;;;;16.13;9.00;;;;;;;;;;5056233;28;20114;-68
2022/03/19 03:38:46;;;;;;;16.50;8.93;;;;;;;;;;5055859;28;20045;-67
2022/03/19 03:41:20;;;;;;;14.68;8.82;;;;;;;;;;5056357;28;20045;-68
2022/03/19 03:43:49;;;;;;;15.63;9.07;;;;;;;;;;5056568;28;20068;-68
2022/03/19 03:46:20;;;;;;;16.27;9.48;;;;;;;;;;5056254;28;20040;-68
2022/03/19 03:48:51;;;;;;;16.52;9.68;;;;;;;;;;5056145;28;20111;-68
2022/03/19 03:51:23;;;;;;;15.82;9.35;;;;;;;;;;5056251;28;20045;-67
2022/03/19 03:53:54;;;;;;;16.15;8.75;;;;;;;;;;5056017;28;20087;-68
2022/03/19 03:56:24;;;;;;;17.23;9.13;;;;;;;;;;5056065;28;20048;-68
2022/03/19 03:58:55;;;;;;;17.85;10.10;;;;;;;;;;5056221;28;20040;-68
2022/03/19 04:01:25;;;;;;;15.45;8.90;;;;;;;;;;5056024;28;20140;-68
2022/03/19 04:03:57;;;;;;;20.80;10.15;;;;;;;;;;5055891;28;20048;-68
2022/03/19 04:06:32;;;;;;;16.45;8.80;;;;;;;;;;5056279;28;20533;-68
2022/03/19 04:09:25;;;;;;;16.65;10.18;;;;;;;;;;5055976;28;20041;-68
2022/03/19 04:11:54;;;;;;;15.10;8.95;;;;;;;;;;5055643;28;20032;-68
2022/03/19 04:14:24;;;;;;;17.27;9.65;;;;;;;;;;5055618;28;20045;-68
2022/03/19 04:16:51;;;;;;;19.50;11.63;;;;;;;;;;5055126;28;20048;-68
2022/03/19 04:19:25;;;;;;;20.35;11.18;;;;;;;;;;5055873;28;20044;-68
2022/03/19 04:21:54;;;;;;;19.60;10.48;;;;;;;;;;5055407;28;20033;-68
2022/03/19 04:24:23;;;;;;;19.95;10.80;;;;;;;;;;5035789;28;20044;-67
2022/03/19 04:26:52;;;;;;;21.27;10.90;;;;;;;;;;5043586;28;20043;-68
2022/03/19 04:29:21;;;;;;;19.25;10.57;;;;;;;;;;5055587;28;20048;-68
2022/03/19 04:31:51;;;;;;;19.25;10.88;;;;;;;;;;5055598;28;20116;-68
2022/03/19 04:34:20;;;;;;;21.45;11.00;;;;;;;;;;5055321;28;20037;-68
2022/03/19 04:37:01;;;;;;;18.77;10.32;;;;;;;;;;5055314;28;20435;-67
2022/03/19 04:39:56;;;;;;;18.00;10.00;;;;;;;;;;5055072;28;20112;-67
2022/03/19 04:42:49;;;;;;;22.27;10.40;;;;;;;;;;5055495;28;20037;-67
2022/03/19 04:45:42;;;;;;;26.90;10.82;;;;;;;;;;5054990;28;20068;-66
2022/03/19 04:48:13;;;;;;;18.55;10.88;;;;;;;;;;5054981;28;20080;-66
2022/03/19 04:50:43;;;;;;;18.00;10.23;;;;;;;;;;5055040;28;20037;-67
2022/03/19 04:53:36;;;;;;;20.67;10.60;;;;;;;;;;5054610;28;20041;-67
2022/03/19 04:56:07;;;;;;;15.50;9.95;;;;;;;;;;5054740;28;20114;-66
2022/03/19 04:58:36;;;;;;;20.00;10.13;;;;;;;;;;5055035;28;20094;-66
2022/03/19 05:01:08;;;;;;;17.10;10.65;;;;;;;;;;5055246;28;20044;-66
2022/03/19 05:03:42;;;;;;;17.02;10.32;;;;;;;;;;5054948;28;20045;-68
2022/03/19 05:06:34;;;;;;;16.63;9.95;;;;;;;;;;5054926;28;20067;-67
2022/03/19 05:12:37;;;;;;;19.15;11.60;;;;;;;;;;5054948;28;20454;-67
2022/03/19 05:15:14;;;;;;;18.48;11.82;;;;;;;;;;5054555;28;20422;-67
2022/03/19 05:17:43;;;;;;;22.13;13.38;;;;;;;;;;5054614;28;20116;-67
2022/03/19 05:20:15;;;;;;;20.80;12.38;;;;;;;;;;5054562;28;20045;-66
2022/03/19 05:22:43;;;;;;;21.98;13.90;;;;;;;;;;5054196;28;20128;-67
2022/03/19 05:25:15;;;;;;;24.30;14.02;;;;;;;;;;5054351;28;20045;-66
2022/03/19 05:27:47;;;;;;;27.17;14.43;;;;;;;;;;5053509;28;20047;-67
2022/03/19 05:30:22;;;;;;;28.80;14.93;;;;;;;;;;5054374;28;20086;-67
2022/03/19 05:32:52;;;;;;;23.67;13.85;;;;;;;;;;5036041;28;20411;-66
2022/03/19 05:35:26;;;;;;;27.23;15.98;;;;;;;;;;5053763;28;20041;-68
2022/03/19 05:37:54;;;;;;;33.30;20.03;;;;;;;;;;5045102;28;20072;-68
2022/03/19 05:40:22;;;;;;;24.52;15.38;;;;;;;;;;5050668;28;20273;-68
2022/03/19 05:42:51;;;;;;;21.45;14.60;;;;;;;;;;5053362;28;20140;-68
2022/03/19 05:45:20;;;;;;;18.73;13.13;;;;;;;;;;5053812;28;20045;-66
2022/03/19 05:47:49;;;;;;;19.40;12.65;;;;;;;;;;5054197;28;20444;-67
2022/03/19 05:50:42;;;;;;;22.98;15.63;;;;;;;;;;5054075;28;20411;-66
2022/03/19 05:53:11;;;;;;;22.27;14.32;;;;;;;;;;5053760;28;20053;-67
2022/03/19 05:55:39;;;;;;;21.95;13.90;;;;;;;;;;5053489;28;20051;-67
2022/03/19 05:58:07;;;;;;;20.08;12.95;;;;;;;;;;5035509;28;20120;-66
2022/03/19 06:00:39;;;;;;;17.80;11.80;;;;;;;;;;5052533;28;20051;-67
2022/03/19 06:03:11;;;;;;;17.02;11.93;;;;;;;;;;5053456;28;20037;-69
2022/03/19 06:05:39;;;;;;;16.15;11.13;;;;;;;;;;5051734;28;20037;-68
2022/03/19 06:08:31;;;;;;;13.95;9.35;;;;;;;;;;5053625;28;20041;-67
2022/03/19 06:11:03;;;;;;;13.57;9.52;;;;;;;;;;5053980;28;20045;-67
2022/03/19 06:13:36;;;;;;;13.95;9.65;;;;;;;;;;5053678;28;20087;-67
2022/03/19 06:16:09;;;;;;;12.85;9.85;;;;;;;;;;5053432;28;20048;-68
2022/03/19 06:18:37;;;;;;;15.38;10.98;;;;;;;;;;5053367;28;20458;-69
2022/03/19 06:21:09;;;;;;;14.05;10.18;;;;;;;;;;5053817;28;20414;-67
2022/03/19 06:23:39;;;;;;;12.85;10.13;;;;;;;;;;5053217;28;20050;-67
2022/03/19 06:26:10;;;;;;;12.63;10.18;;;;;;;;;;5053297;28;20068;-67
2022/03/19 06:28:45;;;;;;;12.18;9.82;;;;;;;;;;5053694;28;20120;-66
2022/03/19 06:31:13;;;;;;;11.70;9.27;;;;;;;;;;5053322;28;20553;-67
2022/03/19 06:33:44;;;;;;;12.63;9.40;;;;;;;;;;5053399;28;20053;-67
2022/03/19 06:39:01;;;;;;;12.57;9.93;;;;;;;;;;5052851;28;20041;-67
2022/03/19 06:41:55;;;;;;;13.02;11.63;;;;;;;;;;5053303;28;20127;-68
2022/03/19 06:44:23;;;;;;;12.10;10.80;;;;;;;;;;5053114;28;20033;-68
2022/03/19 06:46:56;;;;;;;11.98;10.48;;;;;;;;;;5053014;28;20049;-68
2022/03/19 06:49:26;;;;;;;12.20;9.45;;;;;;;;;;5053272;28;20487;-68
2022/03/19 06:51:53;;;;;;;10.20;6.40;;;;;;;;;;5053160;28;20047;-68
2022/03/19 06:54:26;;;;;;;8.90;7.05;;;;;;;;;;5053268;28;20487;-68
2022/03/19 06:57:12;;;;;;;7.05;6.20;;;;;;;;;;5053492;28;20042;-68
2022/03/19 07:00:05;;;;;;;7.30;6.10;;;;;;;;;;5052699;28;20111;-68
2022/03/19 07:02:33;;;;;;;8.55;5.80;;;;;;;;;;5052727;28;20037;-68
2022/03/19 07:05:04;;;;;;;8.23;6.65;;;;;;;;;;5035040;28;20116;-68
2022/03/19 07:07:33;;;;;;;7.53;6.50;;;;;;;;;;5053223;28;20064;-68
2022/03/19 07:10:03;;;;;;;7.70;6.10;;;;;;;;;;5053045;28;20037;-67
2022/03/19 07:12:40;;;;;;;9.18;6.50;;;;;;;;;;5052881;28;20037;-67
2022/03/19 07:15:14;;;;;;;9.07;5.65;;;;;;;;;;5035063;28;20049;-68
2022/03/19 07:17:44;;;;;;;6.28;5.30;;;;;;;;;;5052893;28;20075;-68
2022/03/19 07:20:14;;;;;;;6.93;5.55;;;;;;;;;;5052622;28;20499;-68
2022/03/19 07:22:55;;;;;;;8.20;5.70;;;;;;;;;;5034894;28;20077;-67
2022/03/19 07:25:27;;;;;;;8.02;5.90;;;;;;;;;;5018530;28;20461;-67
2022/03/19 07:27:57;;;;;;;8.23;5.75;;;;;;;;;;5052873;28;20040;-68
2022/03/19 07:30:30;;;;;;;9.65;5.50;;;;;;;;;;5035010;28;20045;-68
2022/03/19 07:32:59;;;;;;;6.38;5.65;;;;;;;;;;5034726;28;20462;-68
2022/03/19 07:35:26;;;;;;;7.25;5.40;;;;;;;;;;5034495;28;20041;-66
2022/03/19 07:38:00;;;;;;;6.03;5.15;;;;;;;;;;5053015;28;20060;-66
2022/03/19 07:43:16;;;;;;;9.45;6.05;;;;;;;;;;5052502;28;20126;-67
2022/03/19 07:45:50;;;;;;;7.85;5.78;;;;;;;;;;5034667;28;20052;-67
2022/03/19 07:48:43;;;;;;;9.18;5.80;;;;;;;;;;5034886;28;20060;-68
2022/03/19 07:51:36;;;;;;;7.70;5.72;;;;;;;;;;5035233;28;20041;-69
2022/03/19 07:54:07;;;;;;;10.75;5.55;;;;;;;;;;5022064;28;20106;-67
2022/03/19 07:56:40;;;;;;;9.65;6.45;;;;;;;;;;5056206;28;20044;-66
2022/03/19 07:59:14;;;;;;;8.50;5.60;;;;;;;;;;5056005;28;20158;-66
2022/03/19 08:01:42;;;;;;;9.15;5.82;;;;;;;;;;5056442;28;20099;-66
2022/03/19 08:04:35;;;;;;;9.60;6.30;;;;;;;;;;5056047;28;20045;-67
2022/03/19 08:07:08;;;;;;;10.68;6.75;;;;;;;;;;5055737;28;20041;-68
2022/03/19 08:09:42;;;;;;;8.95;6.30;;;;;;;;;;5037946;28;20143;-66
2022/03/19 08:12:10;;;;;;;9.82;6.38;;;;;;;;;;5037992;28;20041;-67
2022/03/19 08:14:40;;;;;;;9.43;6.35;;;;;;;;;;5055633;28;20393;-67
2022/03/19 08:17:10;;;;;;;11.18;6.72;;;;;;;;;;5055902;28;20115;-67
2022/03/19 08:19:43;;;;;;;9.60;6.43;;;;;;;;;;5037843;28;20109;-67
2022/03/19 08:22:30;;;;;;;10.45;6.30;;;;;;;;;;5055967;28;20411;-67
2022/03/19 08:25:00;;;;;;;9.93;7.07;;;;;;;;;;5037415;28;20041;-67
2022/03/19 08:27:34;;;;;;;13.80;7.88;;;;;;;;;;5055753;28;20059;-67
2022/03/19 08:30:04;;;;;;;10.90;6.78;;;;;;;;;;5055705;28;20069;-67
2022/03/19 08:32:34;;;;;;;10.05;6.80;;;;;;;;;;5037486;28;20056;-66
2022/03/19 08:35:04;;;;;;;13.00;6.95;;;;;;;;;;5037512;28;20448;-67
2022/03/19 08:37:36;;;;;;;31.38;16.48;;;;;;;;;;5037681;28;20057;-66
2022/03/19 08:40:29;;;;;;;10.95;7.05;;;;;;;;;;5037120;28;20041;-66
2022/03/19 08:43:22;;;;;;;10.18;6.53;;;;;;;;;;5055783;28;20041;-66
2022/03/19 08:46:14;;;;;;;11.48;7.60;;;;;;;;;;5055264;28;20045;-67
2022/03/19 08:49:07;;;;;;;12.98;7.47;;;;;;;;;;5037647;28;20047;-66
2022/03/19 08:51:41;;;;;;;16.20;10.07;;;;;;;;;;5055094;28;20045;-67
2022/03/19 08:54:16;;;;;;;11.35;7.70;;;;;;;;;;5054987;28;20049;-67
2022/03/19 08:56:45;;;;;;;17.50;11.80;;;;;;;;;;5037192;28;20095;-67
2022/03/19 08:59:16;;;;;;;13.73;8.65;;;;;;;;;;5037062;28;20095;-67
2022/03/19 09:01:44;;;;;;;15.05;9.98;;;;;;;;;;5037155;28;20136;-67
2022/03/19 09:04:12;;;;;;;15.65;10.30;;;;;;;;;;5037189;28;20456;-67
2022/03/19 09:06:42;;;;;;;12.48;8.82;;;;;;;;;;5054977;28;20041;-66
2022/03/19 09:09:17;;;;;;;15.20;9.60;;;;;;;;;;5054855;28;20503;-66
2022/03/19 09:11:45;;;;;;;14.68;9.00;;;;;;;;;;5055065;28;20045;-66
2022/03/19 09:14:16;;;;;;;16.38;9.95;;;;;;;;;;5054291;28;20474;-67
2022/03/19 09:16:48;;;;;;;14.75;10.13;;;;;;;;;;5055101;28;20041;-68
2022/03/19 09:19:18;;;;;;;14.38;9.23;;;;;;;;;;5036979;28;20063;-67
2022/03/19 09:21:47;;;;;;;15.18;10.60;;;;;;;;;;5020358;28;20056;-67
2022/03/19 09:24:15;;;;;;;16.25;8.82;;;;;;;;;;5036655;28;20045;-68
2022/03/19 09:26:45;;;;;;;14.32;9.50;;;;;;;;;;5036257;28;20140;-67
2022/03/19 09:29:20;;;;;;;17.00;10.43;;;;;;;;;;5021492;28;20498;-68
2022/03/19 09:31:55;;;;;;;12.73;8.23;;;;;;;;;;5054904;28;20040;-67
2022/03/19 09:34:23;;;;;;;15.60;9.13;;;;;;;;;;5054179;28;20087;-68
2022/03/19 09:36:52;;;;;;;12.70;8.10;;;;;;;;;;5054106;28;20056;-67
2022/03/19 09:39:25;;;;;;;16.42;10.07;;;;;;;;;;5036469;28;20053;-67
2022/03/19 09:41:55;;;;;;;17.73;9.57;;;;;;;;;;5036380;28;20037;-67
2022/03/19 09:44:28;;;;;;;14.57;7.95;;;;;;;;;;5036140;28;20132;-67
2022/03/19 09:47:04;;;;;;;14.63;9.23;;;;;;;;;;5035942;28;20415;-69
2022/03/19 09:49:33;;;;;;;15.23;9.30;;;;;;;;;;5019740;28;20049;-67
2022/03/19 09:52:03;;;;;;;13.05;8.32;;;;;;;;;;5036010;28;20492;-66
2022/03/19 09:54:34;;;;;;;13.70;9.80;;;;;;;;;;5036049;28;20049;-67
2022/03/19 09:57:05;;;;;;;14.02;8.75;;;;;;;;;;5053996;28;20519;-67
2022/03/19 09:59:36;;;;;;;17.23;9.82;;;;;;;;;;5053796;28;20069;-67
2022/03/19 10:02:12;;;;;;;18.90;10.60;;;;;;;;;;5035614;28;20088;-67
2022/03/19 10:04:46;;;;;;;13.60;9.27;;;;;;;;;;5035683;28;20106;-67
2022/03/19 10:10:03;;;;;;;12.98;9.07;;;;;;;;;;5053459;28;20542;-67
2022/03/19 10:12:33;;;;;;;13.82;9.15;;;;;;;;;;5019451;28;20037;-67
2022/03/19 10:15:09;;;;;;;18.83;11.60;;;;;;;;;;5035138;28;20072;-68
2022/03/19 10:17:38;;;;;;;;;;;;;;;;;;5053998;28;20445;-67
2022/03/19 10:20:09;;;;;;;12.45;8.23;;;;;;;;;;5035152;28;19921;-67
2022/03/19 10:22:49;;;;;;;14.23;8.20;;;;;;;;;;5035307;28;20055;-67
2022/03/19 10:25:17;;;;;;;11.93;8.23;;;;;;;;;;5035491;28;20099;-67
2022/03/19 10:27:47;;;;;;;14.57;8.05;;;;;;;;;;5053220;28;20041;-66
2022/03/19 10:30:20;;;;;;;14.55;7.68;;;;;;;;;;5035475;28;20495;-66
2022/03/19 10:32:51;;;;;;;11.98;7.25;;;;;;;;;;5035328;28;20048;-66
2022/03/19 10:35:29;;;;;;;11.48;8.13;;;;;;;;;;5053369;28;20060;-67
2022/03/19 10:38:22;;;;;;;15.90;8.13;;;;;;;;;;5052934;28;20057;-66
2022/03/19 10:40:53;;;;;;;12.82;7.45;;;;;;;;;;5053268;28;20048;-67
2022/03/19 10:43:24;;;;;;;12.55;7.10;;;;;;;;;;5035661;28;20446;-67
2022/03/19 10:45:54;;;;;;;9.27;5.45;;;;;;;;;;5035676;28;20040;-66
2022/03/19 10:48:30;;;;;;;9.30;5.50;;;;;;;;;;5035295;28;20076;-66
2022/03/19 10:50:57;;;;;;;11.50;6.05;;;;;;;;;;5035329;28;20091;-67
2022/03/19 10:53:27;;;;;;;9.52;6.78;;;;;;;;;;5035405;28;20047;-66
2022/03/19 10:56:01;;;;;;;11.13;6.97;;;;;;;;;;5053298;28;20446;-66
2022/03/19 10:58:30;;;;;;;10.40;5.38;;;;;;;;;;5053286;28;20041;-66
2022/03/19 11:01:30;;;;;;;8.93;6.25;;;;;;;;;;5053037;28;20090;-66
2022/03/19 11:04:00;;;;;;;10.35;5.50;;;;;;;;;;5034993;28;20114;-66
2022/03/19 11:06:38;;;;;;;14.57;8.65;;;;;;;;;;5035239;28;20043;-66
2022/03/19 11:09:10;;;;;;;7.80;4.82;;;;;;;;;;5053104;28;20444;-66
2022/03/19 11:11:49;;;;;;;9.07;5.45;;;;;;;;;;5035178;28;20548;-66
2022/03/19 11:14:24;;;;;;;8.80;5.55;;;;;;;;;;5053249;28;20079;-66
2022/03/19 11:19:52;;;;;;;18.20;10.10;;;;;;;;;;5035508;28;20072;-66
2022/03/19 11:22:21;;;;;;;10.85;4.88;;;;;;;;;;5053277;28;20041;-66
2022/03/19 11:25:11;;;;;;;7.00;4.80;;;;;;;;;;5053122;28;20033;-66
2022/03/19 11:27:45;;;;;;;4.82;3.20;;;;;;;;;;5030420;28;20407;-67
2022/03/19 11:30:17;;;;;;;7.80;4.32;;;;;;;;;;5057381;28;20067;-67
2022/03/19 11:33:01;;;;;;;5.47;3.97;;;;;;;;;;5057032;28;20076;-67
2022/03/19 11:35:30;;;;;;;5.22;3.78;;;;;;;;;;5039178;28;20457;-68
2022/03/19 11:38:11;;;;;;;5.72;3.92;;;;;;;;;;5038999;28;20465;-68
2022/03/19 11:40:47;;;;;;;9.70;3.58;;;;;;;;;;5038930;28;20041;-68
2022/03/19 11:43:20;;;;;;;6.30;3.75;;;;;;;;;;5056974;28;20492;-67
2022/03/19 11:45:55;;;;;;;7.97;4.70;;;;;;;;;;5056663;28;20037;-68
2022/03/19 11:48:33;;;;;;;6.32;4.07;;;;;;;;;;5038876;28;20037;-66
2022/03/19 11:51:20;;;;;;;5.72;3.97;;;;;;;;;;5038486;28;20533;-66
2022/03/19 11:53:53;;;;;;;6.80;4.30;;;;;;;;;;5056077;28;20499;-67
2022/03/19 11:56:26;;;;;;;6.68;4.32;;;;;;;;;;5056006;28;20124;-66
2022/03/19 11:59:00;;;;;;;8.02;4.00;;;;;;;;;;5038920;28;20041;-68
2022/03/19 12:01:48;;;;;;;10.43;6.50;;;;;;;;;;5037962;28;20045;-67
2022/03/19 12:04:21;;;;;;;15.23;8.77;;;;;;;;;;5037818;28;20481;-68
2022/03/19 12:06:51;;;;;;;7.75;5.70;;;;;;;;;;5037703;28;20407;-67
2022/03/19 12:09:24;;;;;;;6.68;4.45;;;;;;;;;;5038341;28;20041;-67
2022/03/19 12:12:10;;;;;;;7.10;4.30;;;;;;;;;;5038748;28;20491;-67
2022/03/19 12:14:41;;;;;;;8.82;5.50;;;;;;;;;;5038030;28;20041;-67
2022/03/19 12:17:19;;;;;;;6.57;4.80;;;;;;;;;;5055877;28;20094;-67
2022/03/19 12:19:55;;;;;;;10.98;6.55;;;;;;;;;;5055810;28;20047;-67
2022/03/19 12:22:26;;;;;;;8.98;4.93;;;;;;;;;;5055822;28;20133;-68
2022/03/19 12:25:06;;;;;;;8.35;4.55;;;;;;;;;;5055614;28;20043;-66
2022/03/19 12:27:39;;;;;;;6.65;4.65;;;;;;;;;;5055943;28;20048;-67
2022/03/19 12:30:11;;;;;;;8.80;4.80;;;;;;;;;;5055625;28;20041;-67
2022/03/19 12:33:04;;;;;;;7.95;4.22;;;;;;;;;;5055781;28;20037;-67
2022/03/19 12:35:35;;;;;;;6.38;4.30;;;;;;;;;;5055348;28;20052;-67
2022/03/19 12:38:07;;;;;;;8.90;5.47;;;;;;;;;;5036686;28;20056;-67
2022/03/19 12:43:35;;;;;;;7.50;4.15;;;;;;;;;;5037811;28;20045;-67
2022/03/19 12:46:05;;;;;;;9.20;5.63;;;;;;;;;;5056077;28;20076;-67
2022/03/19 12:48:39;;;;;;;6.78;4.65;;;;;;;;;;5037831;28;20037;-68
2022/03/19 12:51:08;;;;;;;21.92;12.95;;;;;;;;;;5055389;28;20438;-66
2022/03/19 12:53:40;;;;;;;16.25;9.55;;;;;;;;;;5054900;28;20063;-67
2022/03/19 12:56:14;;;;;;;12.95;7.57;;;;;;;;;;5055658;28;20120;-67
2022/03/19 12:58:43;;;;;;;11.57;6.75;;;;;;;;;;5055243;28;20041;-66
2022/03/19 13:01:12;;;;;;;9.35;5.53;;;;;;;;;;5055333;28;20048;-67
2022/03/19 13:03:42;;;;;;;6.93;4.30;;;;;;;;;;5057092;28;20111;-68
2022/03/19 13:06:16;;;;;;;7.88;4.82;;;;;;;;;;5037033;28;20045;-67
2022/03/19 13:08:47;;;;;;;8.88;4.80;;;;;;;;;;5055051;28;20041;-67
2022/03/19 13:11:17;;;;;;;8.43;4.38;;;;;;;;;;5054969;28;20119;-67
2022/03/19 13:13:46;;;;;;;6.80;4.10;;;;;;;;;;5037369;28;20045;-67
2022/03/19 13:16:25;;;;;;;7.03;3.85;;;;;;;;;;5036620;28;20037;-67
2022/03/19 13:19:05;;;;;;;7.72;4.07;;;;;;;;;;5054541;28;20099;-67
2022/03/19 13:21:35;;;;;;;10.05;4.32;;;;;;;;;;5054679;28;20072;-67
2022/03/19 13:24:11;;;;;;;9.25;4.60;;;;;;;;;;5036586;28;20045;-67
2022/03/19 13:26:41;;;;;;;5.97;3.72;;;;;;;;;;5036551;28;20084;-66
2022/03/19 13:29:13;;;;;;;6.80;4.78;;;;;;;;;;5036855;28;20041;-67
2022/03/19 13:32:07;;;;;;;8.07;4.97;;;;;;;;;;5054537;28;20041;-66
2022/03/19 13:34:37;;;;;;;8.02;4.72;;;;;;;;;;5054362;28;20552;-66
2022/03/19 13:37:25;;;;;;;6.22;4.10;;;;;;;;;;5053710;28;20416;-66
2022/03/19 13:43:04;;;;;;;7.88;4.47;;;;;;;;;;5036086;28;20053;-66
2022/03/19 13:45:36;;;;;;;10.73;6.10;;;;;;;;;;5053830;28;20089;-66
2022/03/19 13:48:11;;;;;;;7.93;4.63;;;;;;;;;;5054106;28;20045;-66
2022/03/19 13:50:41;;;;;;;7.18;5.10;;;;;;;;;;5052992;28;20137;-66
2022/03/19 13:53:10;;;;;;;6.75;4.25;;;;;;;;;;5035897;28;20048;-66
2022/03/19 13:55:43;;;;;;;9.80;5.32;;;;;;;;;;5036347;28;20087;-66
2022/03/19 13:58:12;;;;;;;7.60;4.63;;;;;;;;;;5054008;28;20045;-66
2022/03/19 14:00:43;;;;;;;8.88;4.38;;;;;;;;;;5035624;28;20041;-66
2022/03/19 14:03:23;;;;;;;9.85;5.13;;;;;;;;;;5053754;28;20071;-66
2022/03/19 14:05:53;;;;;;;10.63;5.90;;;;;;;;;;5035994;28;20395;-66
2022/03/19 14:08:27;;;;;;;11.77;6.15;;;;;;;;;;5053597;28;20060;-66
2022/03/19 14:11:00;;;;;;;7.90;4.90;;;;;;;;;;5035924;28;20053;-65
2022/03/19 14:13:52;;;;;;;11.30;5.80;;;;;;;;;;5053538;28;20037;-66
2022/03/19 14:16:45;;;;;;;11.65;5.53;;;;;;;;;;5035681;28;20049;-66
2022/03/19 14:19:38;;;;;;;8.70;4.97;;;;;;;;;;5035540;28;20044;-66
2022/03/19 14:22:06;;;;;;;13.25;5.03;;;;;;;;;;5035275;28;20131;-66
2022/03/19 14:24:35;;;;;;;8.05;4.82;;;;;;;;;;5053082;28;20049;-66
2022/03/19 14:27:04;;;;;;;16.42;7.43;;;;;;;;;;5053510;28;20472;-66
2022/03/19 14:29:31;;;;;;;11.18;5.65;;;;;;;;;;5053212;28;20128;-66
2022/03/19 14:32:04;;;;;;;8.88;5.43;;;;;;;;;;5035209;28;20045;-66
2022/03/19 14:34:38;;;;;;;13.77;6.63;;;;;;;;;;5053611;28;20060;-66
2022/03/19 14:37:05;;;;;;;21.00;11.75;;;;;;;;;;5034936;28;20064;-65
2022/03/19 14:39:37;;;;;;;15.55;7.80;;;;;;;;;;5035773;28;20045;-66
2022/03/19 14:42:08;;;;;;;17.85;8.82;;;;;;;;;;5053150;28;20135;-66
2022/03/19 14:44:35;;;;;;;15.07;7.03;;;;;;;;;;5053027;28;20555;-66
2022/03/19 14:47:07;;;;;;;11.18;6.05;;;;;;;;;;5053008;28;20036;-66
2022/03/19 14:49:36;;;;;;;19.23;9.05;;;;;;;;;;5035307;28;20041;-66
2022/03/19 14:52:05;;;;;;;11.18;6.38;;;;;;;;;;5034958;28;20399;-66
2022/03/19 14:54:37;;;;;;;12.27;5.03;;;;;;;;;;5035113;28;20423;-65
2022/03/19 14:57:05;;;;;;;10.13;5.85;;;;;;;;;;5035211;28;20487;-66
2022/03/19 14:59:37;;;;;;;11.65;7.30;;;;;;;;;;5035000;28;20040;-66
2022/03/19 15:02:07;;;;;;;12.27;6.45;;;;;;;;;;5056637;28;20491;-66
2022/03/19 15:04:46;;;;;;;10.45;5.97;;;;;;;;;;5056884;28;20048;-66
2022/03/19 15:07:15;;;;;;;22.58;9.02;;;;;;;;;;5039548;28;20047;-66
2022/03/19 15:09:44;;;;;;;22.48;9.20;;;;;;;;;;5039201;28;20057;-66
2022/03/19 15:12:16;;;;;;;19.50;9.30;;;;;;;;;;5056856;28;20041;-66
2022/03/19 15:14:45;;;;;;;20.88;10.50;;;;;;;;;;5057118;28;20068;-66
2022/03/19 15:17:16;;;;;;;18.77;8.02;;;;;;;;;;5056564;28;20037;-66
2022/03/19 15:19:43;;;;;;;33.95;13.15;;;;;;;;;;5057369;28;20041;-67
2022/03/19 15:22:22;;;;;;;16.23;7.72;;;;;;;;;;5056497;28;20037;-67
2022/03/19 15:24:50;;;;;;;23.83;10.05;;;;;;;;;;5056455;28;20045;-67
2022/03/19 15:27:23;;;;;;;17.45;8.85;;;;;;;;;;5038731;28;20040;-67
2022/03/19 15:29:52;;;;;;;20.73;9.05;;;;;;;;;;5038507;28;20048;-67
2022/03/19 15:32:30;;;;;;;18.50;8.25;;;;;;;;;;5039042;28;20033;-67
2022/03/19 15:35:04;;;;;;;17.33;7.95;;;;;;;;;;5038687;28;20107;-67
2022/03/19 15:37:35;;;;;;;10.30;5.22;;;;;;;;;;5038824;28;20056;-67